»·PEaware :: UPS62 PANC-VHHH

UPS62 :: PANC-VHHH

FLIGHT INFORMATION

Flight Status: Arrived
Operator:
United Parcel Service
More flights by this operator :: More flights under this callsign
Pilot: Jerome G. (4242)
Aircraft: BOEING 747-400 (WINGLETS)
(B744)
More flights by this aircraft type
Origin: PANC Stevens Anchorage Intl
United States
Destination: VHHH Hong Kong Chek Lap Kok
Hong Kong
More flights between these airports :: More routes between these airports
Route: ANC8 NODLE R220 NANZA R220 NANAC R220 IXE Y88 NAKTU Y12 KEC Y24 KOSHI A1 BULAN A1 ELATO V522 ABBEY
File this flight plan on PilotEdge
Remarks:
Altitude:
(Current/Filed)
34,000ft
Speed:
(Current/Filed)
480kts
Departed: 12-Nov-17 12:59 AM
Arrived: 12-Nov-17 12:05 PM
Distance/Time
Traveled:
4406nm/11:05
Distance/Time
To Go:
Arrived

Flight Plot

Page will automatically refresh every two minutes.

Flight plan parsing failed; only flown route is shown


Map Options




Map Legend


Flown Route
Filed Route
Departure Airport
Arrival Airport
Navaid (VOR, NDB)
Fix

Horizontal Profiles

Position Reports

Time Latitude Longitude Heading Altitude Ground
Speed
12-Nov-17 00:29 61.177615 -149.988828 342 165ft 0kts
12-Nov-17 00:30 61.177615 -149.988828 342 165ft 0kts
12-Nov-17 00:31 61.177615 -149.988828 342 165ft 0kts
12-Nov-17 00:32 61.177615 -149.988828 342 165ft 0kts
12-Nov-17 00:33 61.177615 -149.988828 342 165ft 0kts
12-Nov-17 00:34 61.177615 -149.988828 342 165ft 0kts
12-Nov-17 00:35 61.177615 -149.988828 342 165ft 0kts
12-Nov-17 00:36 61.177615 -149.988828 342 165ft 0kts
12-Nov-17 00:37 61.177615 -149.988828 342 165ft 0kts
12-Nov-17 00:38 61.177615 -149.988828 342 165ft 0kts
12-Nov-17 00:39 61.177615 -149.988828 342 165ft 0kts
12-Nov-17 00:40 61.177615 -149.988828 342 165ft 0kts
12-Nov-17 00:41 61.177615 -149.988828 342 165ft 0kts
12-Nov-17 00:42 61.177615 -149.988828 342 165ft 0kts
12-Nov-17 00:43 61.177615 -149.988828 342 165ft 0kts
12-Nov-17 00:44 61.177615 -149.988828 342 165ft 0kts
12-Nov-17 00:45 61.177615 -149.988828 342 165ft 0kts
12-Nov-17 00:46 61.177615 -149.988828 342 165ft 0kts
12-Nov-17 00:47 61.177615 -149.988828 342 165ft 0kts
12-Nov-17 00:48 61.177615 -149.988828 342 165ft 0kts
12-Nov-17 00:49 61.177615 -149.988828 342 165ft 0kts
12-Nov-17 00:50 61.177615 -149.988828 342 165ft 0kts
12-Nov-17 00:51 61.177615 -149.988828 342 165ft 0kts
12-Nov-17 00:52 61.177121 -149.988512 341 165ft 2kts
12-Nov-17 00:53 61.176759 -149.988017 256 165ft 2kts
12-Nov-17 00:54 61.176854 -149.987388 251 165ft 0kts
12-Nov-17 00:55 61.176854 -149.987388 251 165ft 0kts
12-Nov-17 00:56 61.176854 -149.987388 251 165ft 0kts
12-Nov-17 00:57 61.176852 -149.987398 251 165ft 1kts
12-Nov-17 00:58 61.176207 -149.990365 203 165ft 7kts
12-Nov-17 00:59 61.172493 -149.987811 158 165ft 15kts
12-Nov-17 01:00 61.171213 -149.988980 271 165ft 20kts
12-Nov-17 01:01 61.171205 -149.998430 268 165ft 18kts
12-Nov-17 01:02 61.171091 -150.007572 227 165ft 9kts
12-Nov-17 01:03 61.169852 -150.007456 126 165ft 7kts
12-Nov-17 01:04 61.169776 -149.980523 90 166ft 161kts
12-Nov-17 01:05 61.171891 -149.871189 92 2370ft 211kts
12-Nov-17 01:06 61.147127 -149.747163 139 3258ft 256kts
12-Nov-17 01:07 61.077569 -149.727904 202 5004ft 268kts
12-Nov-17 01:08 61.016842 -149.819231 237 6729ft 273kts
12-Nov-17 01:09 61.009769 -149.967309 286 8379ft 268kts
12-Nov-17 01:10 61.030533 -150.115664 290 10100ft 272kts
12-Nov-17 01:11 61.053091 -150.275290 289 10876ft 317kts
12-Nov-17 01:12 61.080298 -150.470159 289 11533ft 389kts
12-Nov-17 01:13 61.110270 -150.687630 289 14051ft 406kts
12-Nov-17 01:14 61.141307 -150.915956 289 16568ft 416kts
12-Nov-17 01:15 61.172544 -151.149024 289 18823ft 426kts
12-Nov-17 01:16 61.204541 -151.388533 290 20834ft 436kts
12-Nov-17 01:17 61.237187 -151.635264 287 22688ft 448kts
12-Nov-17 01:18 61.269110 -151.887944 287 24364ft 458kts
12-Nov-17 01:19 61.285309 -152.152908 273 26155ft 465kts
12-Nov-17 01:20 61.284584 -152.422370 273 27844ft 464kts
12-Nov-17 01:21 61.284033 -152.689366 273 29375ft 461kts
12-Nov-17 01:22 61.285539 -152.953991 273 30730ft 457kts
12-Nov-17 01:23 61.285488 -153.211646 273 31954ft 453kts
12-Nov-17 01:24 61.284628 -153.473553 272 32393ft 453kts
12-Nov-17 01:25 61.283226 -153.734552 272 32376ft 451kts
12-Nov-17 01:26 61.281316 -153.995766 272 32378ft 451kts
12-Nov-17 01:27 61.278921 -154.255188 272 32380ft 448kts
12-Nov-17 01:28 61.276041 -154.513810 271 32381ft 448kts
12-Nov-17 01:29 61.272665 -154.772814 271 32383ft 447kts
12-Nov-17 01:30 61.268820 -155.030315 271 32390ft 445kts
12-Nov-17 01:31 61.264489 -155.287785 270 32390ft 444kts
12-Nov-17 01:32 61.260575 -155.543322 270 32391ft 442kts
12-Nov-17 01:33 61.254821 -155.794941 270 32394ft 441kts
12-Nov-17 01:34 61.249622 -156.049826 272 32404ft 439kts
12-Nov-17 01:35 61.250837 -156.301572 272 32415ft 435kts
12-Nov-17 01:36 61.251039 -156.552981 271 32431ft 435kts
12-Nov-17 01:37 61.251541 -156.804611 273 32446ft 434kts
12-Nov-17 01:38 61.252702 -157.055233 271 32456ft 434kts
12-Nov-17 01:39 61.252428 -157.305152 271 32466ft 432kts
12-Nov-17 01:40 61.251534 -157.555065 270 32477ft 431kts
12-Nov-17 01:41 61.250182 -157.799057 271 32470ft 415kts
12-Nov-17 01:42 61.248426 -158.038875 271 32465ft 416kts
12-Nov-17 01:43 61.246266 -158.276171 271 32453ft 414kts
12-Nov-17 01:44 61.243676 -158.515013 271 32442ft 414kts
12-Nov-17 01:45 61.240665 -158.753798 270 32431ft 414kts
12-Nov-17 01:46 61.237220 -158.993343 270 32420ft 414kts
12-Nov-17 01:47 61.233375 -159.231693 270 32416ft 413kts
12-Nov-17 01:48 61.229124 -159.469278 270 32412ft 412kts
12-Nov-17 01:49 61.224453 -159.707048 270 32398ft 411kts
12-Nov-17 01:50 61.219394 -159.943452 270 32403ft 411kts
12-Nov-17 01:51 61.213935 -160.179237 270 32404ft 408kts
12-Nov-17 01:52 61.208064 -160.415187 270 32407ft 409kts
12-Nov-17 01:53 61.201872 -160.647727 269 32410ft 409kts
12-Nov-17 01:54 61.195200 -160.882982 269 32415ft 409kts
12-Nov-17 01:55 61.188105 -161.118703 269 32419ft 408kts
12-Nov-17 01:56 61.180636 -161.353222 269 32424ft 408kts
12-Nov-17 01:57 61.172775 -161.587240 269 32429ft 407kts
12-Nov-17 01:58 61.164499 -161.821488 268 32434ft 407kts
12-Nov-17 01:59 61.155850 -162.054837 268 32435ft 406kts
12-Nov-17 02:00 61.146820 -162.287574 268 32441ft 406kts
12-Nov-17 02:01 61.138253 -162.520981 268 32437ft 406kts
12-Nov-17 02:02 61.127911 -162.753473 268 32432ft 406kts
12-Nov-17 02:03 61.117069 -162.983282 265 32425ft 407kts
12-Nov-17 02:04 61.087609 -163.211642 258 32427ft 412kts
12-Nov-17 02:05 61.054498 -163.438423 258 32428ft 413kts
12-Nov-17 02:06 61.021463 -163.664966 258 32427ft 413kts
12-Nov-17 02:07 60.989787 -163.893123 258 32425ft 413kts
12-Nov-17 02:08 60.956774 -164.119842 258 32387ft 414kts
12-Nov-17 02:09 60.923143 -164.346409 258 32376ft 415kts
12-Nov-17 02:10 60.889701 -164.574237 257 32369ft 416kts
12-Nov-17 02:11 60.854709 -164.800178 257 32357ft 416kts
12-Nov-17 02:12 60.819516 -165.025975 257 32350ft 417kts
12-Nov-17 02:13 60.783974 -165.249719 256 32353ft 417kts
12-Nov-17 02:14 60.747508 -165.475032 256 32360ft 418kts
12-Nov-17 02:15 60.710681 -165.700499 257 32383ft 419kts
12-Nov-17 02:16 60.675078 -165.928023 256 32410ft 420kts
12-Nov-17 02:17 60.638042 -166.154147 256 32437ft 421kts
12-Nov-17 02:18 60.600383 -166.380015 255 32474ft 421kts
12-Nov-17 02:19 60.562177 -166.606154 255 32475ft 422kts
12-Nov-17 02:20 60.523718 -166.831027 255 32473ft 422kts
12-Nov-17 02:21 60.484849 -167.055545 255 32471ft 423kts
12-Nov-17 02:22 60.445370 -167.280848 255 32468ft 424kts
12-Nov-17 02:23 60.406612 -167.503190 255 32466ft 425kts
12-Nov-17 02:24 60.366169 -167.728194 254 32474ft 427kts
12-Nov-17 02:25 60.324678 -167.954101 254 32481ft 429kts
12-Nov-17 02:26 60.283601 -168.179488 254 32481ft 428kts
12-Nov-17 02:27 60.242227 -168.404267 254 32483ft 428kts
12-Nov-17 02:28 60.200206 -168.629228 253 32483ft 428kts
12-Nov-17 02:29 60.159640 -168.853502 254 32483ft 427kts
12-Nov-17 02:30 60.118168 -169.077515 253 32484ft 428kts
12-Nov-17 02:31 60.075919 -169.300750 253 32484ft 430kts
12-Nov-17 02:32 60.033071 -169.524197 253 32490ft 431kts
12-Nov-17 02:33 59.990099 -169.745715 252 32503ft 432kts
12-Nov-17 02:34 59.946218 -169.969358 252 32509ft 433kts
12-Nov-17 02:35 59.901951 -170.192478 252 32513ft 433kts
12-Nov-17 02:36 59.857175 -170.415657 252 32492ft 433kts
12-Nov-17 02:37 59.812273 -170.637011 251 32461ft 431kts
12-Nov-17 02:38 59.767109 -170.857252 251 32464ft 431kts
12-Nov-17 02:39 59.721409 -171.077703 251 32468ft 432kts
12-Nov-17 02:40 59.675421 -171.297194 251 32471ft 432kts
12-Nov-17 02:41 59.629636 -171.517025 250 32474ft 433kts
12-Nov-17 02:42 59.582126 -171.736568 250 32477ft 434kts
12-Nov-17 02:43 59.535627 -171.952710 251 32567ft 434kts
12-Nov-17 02:44 59.490410 -172.172599 251 32568ft 433kts
12-Nov-17 02:45 59.444512 -172.392085 251 32569ft 432kts
12-Nov-17 02:46 59.399327 -172.610129 251 32569ft 431kts
12-Nov-17 02:47 59.354345 -172.827611 250 32570ft 430kts
12-Nov-17 02:48 59.308255 -173.044607 250 32570ft 430kts
12-Nov-17 02:49 59.261892 -173.260234 249 32570ft 431kts
12-Nov-17 02:50 59.215076 -173.475683 249 32570ft 431kts
12-Nov-17 02:51 59.168248 -173.691556 249 32570ft 431kts
12-Nov-17 02:52 59.120774 -173.905635 249 32570ft 431kts
12-Nov-17 02:53 59.073055 -174.116590 248 32569ft 431kts
12-Nov-17 02:54 59.025443 -174.330897 249 32557ft 431kts
12-Nov-17 02:55 58.978307 -174.543849 248 32556ft 429kts
12-Nov-17 02:56 58.930789 -174.755847 248 32554ft 429kts
12-Nov-17 02:57 58.884172 -174.969000 248 32552ft 429kts
12-Nov-17 02:58 58.836994 -175.180490 248 32551ft 429kts
12-Nov-17 02:59 58.789150 -175.391070 248 32549ft 429kts
12-Nov-17 03:00 58.740816 -175.601476 247 32547ft 428kts
12-Nov-17 03:01 58.692426 -175.810037 247 32545ft 427kts
12-Nov-17 03:02 58.643820 -176.017507 247 32543ft 426kts
12-Nov-17 03:03 58.595313 -176.222580 246 32542ft 426kts
12-Nov-17 03:04 58.546046 -176.428910 246 32540ft 427kts
12-Nov-17 03:05 58.496957 -176.635613 246 32538ft 427kts
12-Nov-17 03:06 58.446384 -176.842360 246 32417ft 430kts
12-Nov-17 03:07 58.395364 -177.048441 245 32311ft 431kts
12-Nov-17 03:08 58.344034 -177.254756 245 32310ft 431kts
12-Nov-17 03:09 58.292002 -177.460758 245 32319ft 430kts
12-Nov-17 03:10 58.239841 -177.664937 244 32319ft 429kts
12-Nov-17 03:11 58.189127 -177.869480 245 32323ft 429kts
12-Nov-17 03:12 58.137383 -178.073105 244 32322ft 428kts
12-Nov-17 03:13 58.085869 -178.272712 244 32322ft 428kts
12-Nov-17 03:14 58.033209 -178.474696 244 32322ft 430kts
12-Nov-17 03:15 57.979913 -178.677267 243 32322ft 430kts
12-Nov-17 03:16 57.926629 -178.877943 243 32322ft 429kts
12-Nov-17 03:17 57.881865 -179.045164 242 32321ft 430kts
12-Nov-17 03:18 57.818587 -179.279464 242 32321ft 431kts
12-Nov-17 03:19 57.764006 -179.479636 242 32321ft 432kts
12-Nov-17 03:20 57.718206 -179.646259 242 32321ft 433kts
12-Nov-17 03:21 57.653449 -179.879798 242 32321ft 433kts
12-Nov-17 03:22 57.607104 179.954515 242 32302ft 432kts
12-Nov-17 03:23 57.551700 179.758008 241 32116ft 435kts
12-Nov-17 03:24 57.495073 179.558888 241 32095ft 435kts
12-Nov-17 03:25 57.428601 179.327277 241 32091ft 436kts
12-Nov-17 03:26 57.380773 179.162061 240 32133ft 437kts
12-Nov-17 03:27 57.322693 178.963008 240 32150ft 439kts
12-Nov-17 03:28 57.264320 178.764645 240 32146ft 440kts
12-Nov-17 03:29 57.205326 178.565881 240 32140ft 441kts
12-Nov-17 03:30 57.146069 178.367907 239 32136ft 442kts
12-Nov-17 03:31 57.086473 178.170463 239 32132ft 442kts
12-Nov-17 03:32 57.026402 177.973101 239 32123ft 441kts
12-Nov-17 03:33 56.966954 177.777196 239 32123ft 446kts
12-Nov-17 03:34 56.905703 177.580088 238 32119ft 445kts
12-Nov-17 03:35 56.843888 177.383201 238 32102ft 446kts
12-Nov-17 03:36 56.781621 177.187420 238 32099ft 447kts
12-Nov-17 03:37 56.718583 176.992061 237 32094ft 448kts
12-Nov-17 03:38 56.654883 176.796181 238 32090ft 449kts
12-Nov-17 03:39 56.592372 176.599327 237 32088ft 451kts
12-Nov-17 03:40 56.528763 176.403993 236 32084ft 450kts
12-Nov-17 03:41 56.464563 176.209091 236 32073ft 449kts
12-Nov-17 03:42 56.400320 176.015742 236 32069ft 449kts
12-Nov-17 03:43 56.336503 175.825225 236 32067ft 450kts
12-Nov-17 03:44 56.271306 175.632157 236 32063ft 451kts
12-Nov-17 03:45 56.205799 175.439683 236 32060ft 453kts
12-Nov-17 03:46 56.139614 175.246775 236 32057ft 456kts
12-Nov-17 03:47 56.072419 175.052489 236 32054ft 459kts
12-Nov-17 03:48 56.004589 174.857935 236 32052ft 463kts
12-Nov-17 03:49 55.936470 174.664123 235 32051ft 460kts
12-Nov-17 03:50 55.867567 174.469612 235 32047ft 465kts
12-Nov-17 03:51 55.798144 174.275204 235 32045ft 467kts
12-Nov-17 03:52 55.728128 174.080695 235 32031ft 468kts
12-Nov-17 03:53 55.658291 173.888219 235 32013ft 469kts
12-Nov-17 03:54 55.587404 173.694380 235 32012ft 470kts
12-Nov-17 03:55 55.516196 173.501198 235 32011ft 470kts
12-Nov-17 03:56 55.444389 173.307922 235 32010ft 471kts
12-Nov-17 03:57 55.372338 173.115505 235 32009ft 472kts
12-Nov-17 03:58 55.299745 172.923145 235 32007ft 474kts
12-Nov-17 03:59 55.226369 172.730223 235 32007ft 475kts
12-Nov-17 04:00 55.152721 172.538086 235 32006ft 477kts
12-Nov-17 04:01 55.078999 172.345504 235 32004ft 478kts
12-Nov-17 04:02 55.003964 172.153652 235 32003ft 478kts
12-Nov-17 04:03 54.929666 171.965156 234 32003ft 479kts
12-Nov-17 04:04 54.851858 171.777228 234 32001ft 480kts
12-Nov-17 04:05 54.773383 171.589560 234 32000ft 479kts
12-Nov-17 04:06 54.695720 171.402531 235 31999ft 479kts
12-Nov-17 04:07 54.617999 171.216259 234 31997ft 478kts
12-Nov-17 04:08 54.539461 171.030690 234 31996ft 478kts
12-Nov-17 04:09 54.460899 170.846592 234 31995ft 477kts
12-Nov-17 04:10 54.382157 170.663443 234 31993ft 477kts
12-Nov-17 04:11 54.302953 170.480578 234 31981ft 476kts
12-Nov-17 04:12 54.223834 170.299224 234 31981ft 476kts
12-Nov-17 04:13 54.145309 170.120531 234 31979ft 476kts
12-Nov-17 04:14 54.065382 169.939942 234 31977ft 476kts
12-Nov-17 04:15 53.985432 169.760595 234 31975ft 476kts
12-Nov-17 04:16 53.905798 169.581812 234 31972ft 474kts
12-Nov-17 04:17 53.825303 169.404474 234 31969ft 473kts
12-Nov-17 04:18 53.745825 169.228387 237 31968ft 470kts
12-Nov-17 04:19 53.680925 169.038543 241 31963ft 465kts
12-Nov-17 04:20 53.616942 168.849142 241 31960ft 463kts
12-Nov-17 04:21 53.553772 168.660960 242 31959ft 461kts
12-Nov-17 04:22 53.490255 168.474449 240 31954ft 459kts
12-Nov-17 04:23 53.426575 168.290986 240 31950ft 459kts
12-Nov-17 04:24 53.362117 168.106624 240 31945ft 458kts
12-Nov-17 04:25 53.297338 167.923596 239 31940ft 456kts
12-Nov-17 04:26 53.232490 167.741746 238 31937ft 455kts
12-Nov-17 04:27 53.168777 167.559417 237 31931ft 455kts
12-Nov-17 04:28 53.104180 167.378483 237 31926ft 455kts
12-Nov-17 04:29 53.039026 167.197837 236 31920ft 454kts
12-Nov-17 04:30 52.973886 167.018609 236 31914ft 453kts
12-Nov-17 04:31 52.908576 166.840207 235 31881ft 453kts
12-Nov-17 04:32 52.842903 166.662084 235 31870ft 452kts
12-Nov-17 04:33 52.778080 166.487503 235 31865ft 451kts
12-Nov-17 04:34 52.712196 166.311281 234 31858ft 451kts
12-Nov-17 04:35 52.645843 166.135053 234 31852ft 451kts
12-Nov-17 04:36 52.579441 165.959899 234 31849ft 451kts
12-Nov-17 04:37 52.513119 165.786163 233 31840ft 449kts
12-Nov-17 04:38 52.446318 165.612374 233 31834ft 449kts
12-Nov-17 04:39 52.379586 165.439939 233 31829ft 448kts
12-Nov-17 04:40 52.312779 165.268467 232 31823ft 447kts
12-Nov-17 04:41 52.245658 165.097348 232 31819ft 445kts
12-Nov-17 04:42 52.178806 164.928046 232 31812ft 443kts
12-Nov-17 04:43 52.112878 164.762174 231 31808ft 441kts
12-Nov-17 04:44 52.045909 164.594775 230 31803ft 440kts
12-Nov-17 04:45 51.979182 164.429054 230 31799ft 439kts
12-Nov-17 04:46 51.912210 164.263802 230 31794ft 438kts
12-Nov-17 04:47 51.844951 164.098893 229 31789ft 437kts
12-Nov-17 04:48 51.778178 163.934816 229 31786ft 437kts
12-Nov-17 04:49 51.710538 163.771976 229 31781ft 437kts
12-Nov-17 04:50 51.642561 163.608982 229 31778ft 437kts
12-Nov-17 04:51 51.574335 163.447089 228 31775ft 438kts
12-Nov-17 04:52 51.505788 163.285733 228 31771ft 438kts
12-Nov-17 04:53 51.438038 163.125431 228 31769ft 439kts
12-Nov-17 04:54 51.369717 162.963693 227 31766ft 438kts
12-Nov-17 04:55 51.300920 162.803115 227 31764ft 438kts
12-Nov-17 04:56 51.231669 162.642685 227 31760ft 438kts
12-Nov-17 04:57 51.162417 162.483272 226 31758ft 437kts
12-Nov-17 04:58 51.092921 162.324276 226 31756ft 438kts
12-Nov-17 04:59 51.023031 162.165357 226 31755ft 437kts
12-Nov-17 05:00 50.953162 162.007443 226 31753ft 438kts
12-Nov-17 05:01 50.883220 161.850316 225 31752ft 435kts
12-Nov-17 05:02 50.812933 161.693368 225 31751ft 437kts
12-Nov-17 05:03 50.743373 161.538965 225 31750ft 437kts
12-Nov-17 05:04 50.672619 161.382826 225 31750ft 436kts
12-Nov-17 05:05 50.601971 161.227849 224 31749ft 436kts
12-Nov-17 05:06 50.531086 161.073262 224 31749ft 436kts
12-Nov-17 05:07 50.459809 160.918732 224 31749ft 435kts
12-Nov-17 05:08 50.388858 160.765371 224 31749ft 436kts
12-Nov-17 05:09 50.317656 160.612213 223 31749ft 435kts
12-Nov-17 05:10 50.245798 160.459852 223 31749ft 435kts
12-Nov-17 05:11 50.173896 160.308052 223 31911ft 436kts
12-Nov-17 05:12 50.101815 160.157255 223 33339ft 429kts
12-Nov-17 05:13 50.031110 160.010121 224 34363ft 429kts
12-Nov-17 05:14 49.959885 159.860757 225 34755ft 431kts
12-Nov-17 05:15 49.888516 159.711897 225 34756ft 430kts
12-Nov-17 05:16 49.816377 159.563285 224 34758ft 431kts
12-Nov-17 05:17 49.743864 159.415596 224 34758ft 432kts
12-Nov-17 05:18 49.671169 159.267625 224 34761ft 433kts
12-Nov-17 05:19 49.597829 159.119279 224 34761ft 434kts
12-Nov-17 05:20 49.524249 158.971424 224 34764ft 436kts
12-Nov-17 05:21 49.451012 158.822600 225 34766ft 437kts
12-Nov-17 05:22 49.377042 158.673631 224 34768ft 438kts
12-Nov-17 05:23 49.303734 158.527437 224 34770ft 438kts
12-Nov-17 05:24 49.229283 158.379905 224 34761ft 438kts
12-Nov-17 05:25 49.154288 158.232146 224 34763ft 439kts
12-Nov-17 05:26 49.079269 158.085152 224 34744ft 439kts
12-Nov-17 05:27 49.003999 157.938495 225 34747ft 441kts
12-Nov-17 05:28 48.927885 157.790982 225 34750ft 443kts
12-Nov-17 05:29 48.851691 157.644134 225 34754ft 443kts
12-Nov-17 05:30 48.775294 157.497703 225 34757ft 443kts
12-Nov-17 05:31 48.698380 157.351094 225 34761ft 444kts
12-Nov-17 05:32 48.621435 157.205220 225 34765ft 444kts
12-Nov-17 05:33 48.545279 157.061608 225 34769ft 443kts
12-Nov-17 05:34 48.467686 156.916081 225 34773ft 445kts
12-Nov-17 05:35 48.389930 156.771037 225 34776ft 446kts
12-Nov-17 05:36 48.311866 156.626204 225 34781ft 447kts
12-Nov-17 05:37 48.233126 156.480901 225 34785ft 448kts
12-Nov-17 05:38 48.154326 156.336265 225 34790ft 449kts
12-Nov-17 05:39 48.075289 156.191976 225 34795ft 449kts
12-Nov-17 05:40 47.995733 156.047515 225 34800ft 449kts
12-Nov-17 05:41 47.916210 155.903888 225 34804ft 449kts
12-Nov-17 05:42 47.837084 155.761728 225 34810ft 449kts
12-Nov-17 05:43 47.770585 155.642835 225 34814ft 450kts
12-Nov-17 05:44 47.677104 155.476576 225 34819ft 450kts
12-Nov-17 05:45 47.596674 155.334344 226 34857ft 450kts
12-Nov-17 05:46 47.529168 155.215545 226 34889ft 451kts
12-Nov-17 05:47 47.434641 155.050063 226 34896ft 452kts
12-Nov-17 05:48 47.366894 154.932079 226 34903ft 453kts
12-Nov-17 05:49 47.285380 154.790798 226 34909ft 453kts
12-Nov-17 05:50 47.203331 154.649338 226 34916ft 453kts
12-Nov-17 05:51 47.107676 154.485330 226 34923ft 454kts
12-Nov-17 05:52 47.038889 154.368005 226 34929ft 454kts
12-Nov-17 05:53 46.957432 154.229719 226 34935ft 454kts
12-Nov-17 05:54 46.874829 154.090205 227 34941ft 454kts
12-Nov-17 05:55 46.791737 153.950596 227 34947ft 455kts
12-Nov-17 05:56 46.708470 153.811378 227 34953ft 456kts
12-Nov-17 05:57 46.625029 153.672590 227 34959ft 456kts
12-Nov-17 05:58 46.541208 153.533874 227 34965ft 455kts
12-Nov-17 05:59 46.457504 153.396053 227 34970ft 456kts
12-Nov-17 06:00 46.373772 153.258059 227 34976ft 456kts
12-Nov-17 06:01 46.289208 153.120695 227 34984ft 456kts
12-Nov-17 06:02 46.204806 152.984278 227 34987ft 455kts
12-Nov-17 06:03 46.120649 152.850727 227 34992ft 456kts
12-Nov-17 06:04 46.034874 152.715431 227 34997ft 456kts
12-Nov-17 06:05 45.949637 152.580508 228 35002ft 456kts
12-Nov-17 06:06 45.864455 152.445750 227 35006ft 456kts
12-Nov-17 06:07 45.778449 152.311066 227 35011ft 457kts
12-Nov-17 06:08 45.692440 152.177164 227 35015ft 457kts
12-Nov-17 06:09 45.605988 152.043253 227 35019ft 457kts
12-Nov-17 06:10 45.519640 151.910161 227 35023ft 457kts
12-Nov-17 06:11 45.433099 151.777414 228 35027ft 457kts
12-Nov-17 06:12 45.346254 151.644847 228 35031ft 457kts
12-Nov-17 06:13 45.260490 151.514557 228 35035ft 457kts
12-Nov-17 06:14 45.173577 151.383146 228 35038ft 457kts
12-Nov-17 06:15 45.086170 151.251623 228 35042ft 458kts
12-Nov-17 06:16 44.998788 151.120762 228 35044ft 458kts
12-Nov-17 06:17 44.911215 150.990240 228 35048ft 458kts
12-Nov-17 06:18 44.823256 150.859764 228 35052ft 458kts
12-Nov-17 06:19 44.735398 150.730049 228 35054ft 458kts
12-Nov-17 06:20 44.647361 150.600687 228 35057ft 458kts
12-Nov-17 06:21 44.558937 150.471356 228 35059ft 458kts
12-Nov-17 06:22 44.470690 150.342890 228 35061ft 458kts
12-Nov-17 06:23 44.383289 150.216242 228 35064ft 458kts
12-Nov-17 06:24 44.294419 150.088061 228 35066ft 458kts
12-Nov-17 06:25 44.205818 149.960855 228 35068ft 458kts
12-Nov-17 06:26 44.117001 149.833930 228 35082ft 458kts
12-Nov-17 06:27 44.027723 149.706922 228 35081ft 458kts
12-Nov-17 06:28 43.938612 149.580735 228 35069ft 457kts
12-Nov-17 06:29 43.849534 149.455164 228 35071ft 457kts
12-Nov-17 06:30 43.759990 149.329512 228 35073ft 457kts
12-Nov-17 06:31 43.670753 149.204852 229 35074ft 456kts
12-Nov-17 06:32 43.581527 149.080764 229 35076ft 456kts
12-Nov-17 06:33 43.492905 148.958065 229 35077ft 456kts
12-Nov-17 06:34 43.403458 148.834767 229 35078ft 455kts
12-Nov-17 06:35 43.314011 148.712016 229 35079ft 455kts
12-Nov-17 06:36 43.224141 148.589226 229 35080ft 454kts
12-Nov-17 06:37 43.134519 148.467312 229 35081ft 454kts
12-Nov-17 06:38 43.044906 148.345940 229 35066ft 454kts
12-Nov-17 06:39 42.954930 148.224606 229 35067ft 453kts
12-Nov-17 06:40 42.865248 148.104190 229 35068ft 453kts
12-Nov-17 06:41 42.775550 147.984269 229 35084ft 452kts
12-Nov-17 06:42 42.685628 147.864556 229 35084ft 451kts
12-Nov-17 06:43 42.597214 147.746909 229 35085ft 450kts
12-Nov-17 06:44 42.507527 147.628555 228 35086ft 450kts
12-Nov-17 06:45 42.417296 147.510265 228 35087ft 450kts
12-Nov-17 06:46 42.327302 147.392557 228 35087ft 450kts
12-Nov-17 06:47 42.237193 147.275235 228 35088ft 450kts
12-Nov-17 06:48 42.146731 147.157783 229 35088ft 450kts
12-Nov-17 06:49 42.056918 147.040268 228 35089ft 451kts
12-Nov-17 06:50 41.966429 146.923850 228 35089ft 449kts
12-Nov-17 06:51 41.876232 146.808113 228 35088ft 447kts
12-Nov-17 06:52 41.786158 146.693134 228 35089ft 448kts
12-Nov-17 06:53 41.696832 146.579617 228 35089ft 448kts
12-Nov-17 06:54 41.606502 146.464136 228 35090ft 448kts
12-Nov-17 06:55 41.516248 146.349531 228 35091ft 448kts
12-Nov-17 06:56 41.425768 146.235368 228 35092ft 448kts
12-Nov-17 06:57 41.334946 146.121272 228 35093ft 448kts
12-Nov-17 06:58 41.244402 146.007986 228 35094ft 447kts
12-Nov-17 06:59 41.153793 145.895073 228 35095ft 447kts
12-Nov-17 07:00 41.062884 145.782235 228 35096ft 446kts
12-Nov-17 07:01 40.972332 145.670282 228 35097ft 445kts
12-Nov-17 07:02 40.881453 145.558364 228 35098ft 446kts
12-Nov-17 07:03 40.791815 145.448409 228 35100ft 445kts
12-Nov-17 07:04 40.701102 145.337558 227 35101ft 445kts
12-Nov-17 07:05 40.610134 145.226336 227 35104ft 445kts
12-Nov-17 07:06 40.519074 145.116143 227 35106ft 445kts
12-Nov-17 07:07 40.427829 145.006164 227 35109ft 446kts
12-Nov-17 07:08 40.336004 144.895989 227 35112ft 446kts
12-Nov-17 07:09 40.244470 144.786726 227 35114ft 446kts
12-Nov-17 07:10 40.152865 144.677572 228 35118ft 446kts
12-Nov-17 07:11 40.061084 144.567655 227 35121ft 447kts
12-Nov-17 07:12 39.970972 144.460753 227 35123ft 446kts
12-Nov-17 07:13 39.878487 144.351540 227 35126ft 445kts
12-Nov-17 07:14 39.786215 144.243008 227 35130ft 447kts
12-Nov-17 07:15 39.694028 144.134986 227 35124ft 447kts
12-Nov-17 07:16 39.601783 144.027300 227 35127ft 446kts
12-Nov-17 07:17 39.509222 143.919649 227 35132ft 446kts
12-Nov-17 07:18 39.416898 143.812672 227 35135ft 446kts
12-Nov-17 07:19 39.324564 143.706077 227 35164ft 445kts
12-Nov-17 07:20 39.231873 143.599462 227 35167ft 445kts
12-Nov-17 07:21 39.139710 143.493713 228 35169ft 443kts
12-Nov-17 07:22 39.048644 143.389485 227 35171ft 443kts
12-Nov-17 07:23 38.955929 143.284262 227 35174ft 443kts
12-Nov-17 07:24 38.865994 143.176810 231 35183ft 440kts
12-Nov-17 07:25 38.780747 143.064625 231 35185ft 439kts
12-Nov-17 07:26 38.694746 142.952954 231 35187ft 440kts
12-Nov-17 07:27 38.609179 142.841481 231 35188ft 439kts
12-Nov-17 07:28 38.523574 142.730390 231 35190ft 439kts
12-Nov-17 07:29 38.437431 142.619557 231 35191ft 439kts
12-Nov-17 07:30 38.351335 142.509427 231 35192ft 438kts
12-Nov-17 07:31 38.265908 142.398967 232 35194ft 438kts
12-Nov-17 07:32 38.181713 142.288855 232 35195ft 438kts
12-Nov-17 07:33 38.096570 142.178656 232 35196ft 437kts
12-Nov-17 07:34 38.011286 142.068672 232 35197ft 438kts
12-Nov-17 07:35 37.925550 141.958589 231 35197ft 438kts
12-Nov-17 07:36 37.839952 141.849168 231 35197ft 438kts
12-Nov-17 07:37 37.754413 141.740010 232 35198ft 437kts
12-Nov-17 07:38 37.668972 141.630473 232 35200ft 437kts
12-Nov-17 07:39 37.583461 141.521820 232 35199ft 436kts
12-Nov-17 07:40 37.497870 141.413512 232 35199ft 434kts
12-Nov-17 07:41 37.412996 141.306485 232 35199ft 432kts
12-Nov-17 07:42 37.329308 141.200850 232 35199ft 432kts
12-Nov-17 07:43 37.244097 141.094326 232 35199ft 431kts
12-Nov-17 07:44 37.159167 140.988508 232 35199ft 430kts
12-Nov-17 07:45 37.083407 140.874632 238 35199ft 424kts
12-Nov-17 07:46 37.009516 140.759425 238 35200ft 423kts
12-Nov-17 07:47 36.935780 140.644933 238 35200ft 423kts
12-Nov-17 07:48 36.862212 140.530619 238 35200ft 422kts
12-Nov-17 07:49 36.787905 140.416591 238 35200ft 422kts
12-Nov-17 07:50 36.717459 140.300540 243 35203ft 417kts
12-Nov-17 07:51 36.654832 140.179682 243 35203ft 414kts
12-Nov-17 07:52 36.592507 140.061014 242 35204ft 413kts
12-Nov-17 07:53 36.529152 139.941780 243 35215ft 413kts
12-Nov-17 07:54 36.464573 139.823382 240 35219ft 416kts
12-Nov-17 07:55 36.396001 139.707206 241 35225ft 416kts
12-Nov-17 07:56 36.328342 139.590879 241 35236ft 416kts
12-Nov-17 07:57 36.260430 139.474918 241 35242ft 416kts
12-Nov-17 07:58 36.192051 139.358794 240 35247ft 416kts
12-Nov-17 07:59 36.135065 139.236336 251 35254ft 408kts
12-Nov-17 08:00 36.088408 139.108734 251 35256ft 407kts
12-Nov-17 08:01 36.041178 138.980944 250 35255ft 408kts
12-Nov-17 08:02 35.993853 138.855330 250 35256ft 408kts
12-Nov-17 08:03 35.946383 138.729365 250 35249ft 405kts
12-Nov-17 08:04 35.898429 138.602748 250 35245ft 407kts
12-Nov-17 08:05 35.850307 138.476705 250 35239ft 406kts
12-Nov-17 08:06 35.809989 138.371725 250 35234ft 407kts
12-Nov-17 08:07 35.753721 138.223976 249 35203ft 407kts
12-Nov-17 08:08 35.705008 138.098207 249 35222ft 408kts
12-Nov-17 08:09 35.664563 137.993313 251 35219ft 407kts
12-Nov-17 08:10 35.618997 137.865722 251 35216ft 406kts
12-Nov-17 08:11 35.572518 137.739396 250 35214ft 406kts
12-Nov-17 08:12 35.524739 137.613945 250 35212ft 405kts
12-Nov-17 08:13 35.463614 137.472163 231 35234ft 425kts
12-Nov-17 08:14 35.379258 137.403024 219 35205ft 443kts
12-Nov-17 08:15 35.270237 137.331730 219 35205ft 445kts
12-Nov-17 08:16 35.161146 137.259488 219 35204ft 444kts
12-Nov-17 08:17 35.053193 137.187610 219 35200ft 442kts
12-Nov-17 08:18 34.945339 137.116089 219 35199ft 442kts
12-Nov-17 08:19 34.837025 137.044774 219 35200ft 441kts
12-Nov-17 08:20 34.729128 136.973998 219 35199ft 441kts
12-Nov-17 08:21 34.630724 136.890429 228 35199ft 427kts
12-Nov-17 08:22 34.536632 136.802384 228 35199ft 426kts
12-Nov-17 08:23 34.443689 136.716520 227 35206ft 426kts
12-Nov-17 08:24 34.349377 136.629955 227 35206ft 426kts
12-Nov-17 08:25 34.255436 136.542606 228 35207ft 424kts
12-Nov-17 08:26 34.162339 136.455465 228 35207ft 423kts
12-Nov-17 08:27 34.069327 136.368510 228 35208ft 423kts
12-Nov-17 08:28 33.976026 136.281584 228 35210ft 423kts
12-Nov-17 08:29 33.883065 136.195431 228 35213ft 422kts
12-Nov-17 08:30 33.789810 136.109212 228 35212ft 422kts
12-Nov-17 08:31 33.696787 136.023390 228 35212ft 421kts
12-Nov-17 08:32 33.604705 135.938304 228 35211ft 421kts
12-Nov-17 08:33 33.511639 135.853033 228 35219ft 421kts
12-Nov-17 08:34 33.441595 135.752644 254 35218ft 381kts
12-Nov-17 08:35 33.409555 135.631968 259 35218ft 380kts
12-Nov-17 08:36 33.380895 135.510545 258 35218ft 378kts
12-Nov-17 08:37 33.351283 135.390122 257 35224ft 378kts
12-Nov-17 08:38 33.320387 135.270169 257 35225ft 377kts
12-Nov-17 08:39 33.288984 135.150182 257 35213ft 377kts
12-Nov-17 08:40 33.257656 135.030937 257 35206ft 376kts
12-Nov-17 08:41 33.228219 134.911297 258 35194ft 375kts
12-Nov-17 08:42 33.199362 134.792779 258 35191ft 375kts
12-Nov-17 08:43 33.170123 134.673441 258 35188ft 375kts
12-Nov-17 08:44 33.141141 134.554091 258 35184ft 374kts
12-Nov-17 08:45 33.111775 134.434773 258 35182ft 374kts
12-Nov-17 08:46 33.082272 134.315915 258 35180ft 374kts
12-Nov-17 08:47 33.052991 134.197196 258 35178ft 373kts
12-Nov-17 08:48 33.024020 134.078229 258 35177ft 373kts
12-Nov-17 08:49 32.995085 133.959944 258 35176ft 372kts
12-Nov-17 08:50 32.966716 133.841617 258 35175ft 370kts
12-Nov-17 08:51 32.937741 133.724059 258 35175ft 370kts
12-Nov-17 08:52 32.908970 133.607965 258 35176ft 370kts
12-Nov-17 08:53 32.879725 133.490327 258 35176ft 370kts
12-Nov-17 08:54 32.850429 133.373230 258 35177ft 369kts
12-Nov-17 08:55 32.821626 133.256181 258 35178ft 369kts
12-Nov-17 08:56 32.792048 133.138960 258 35180ft 369kts
12-Nov-17 08:57 32.762531 133.022418 258 35180ft 368kts
12-Nov-17 08:58 32.717320 132.911731 248 35181ft 377kts
12-Nov-17 08:59 32.665589 132.802811 248 35180ft 377kts
12-Nov-17 09:00 32.614617 132.694739 248 35180ft 375kts
12-Nov-17 09:01 32.564152 132.586800 248 35189ft 374kts
12-Nov-17 09:02 32.514164 132.479974 248 35188ft 373kts
12-Nov-17 09:03 32.463622 132.372708 248 35187ft 373kts
12-Nov-17 09:04 32.413147 132.265994 248 35185ft 371kts
12-Nov-17 09:05 32.362631 132.159529 248 35183ft 370kts
12-Nov-17 09:06 32.312299 132.053762 248 35181ft 369kts
12-Nov-17 09:07 32.261794 131.947948 248 35179ft 368kts
12-Nov-17 09:08 32.211396 131.842635 248 35172ft 369kts
12-Nov-17 09:09 32.160900 131.737424 248 35171ft 369kts
12-Nov-17 09:10 32.110135 131.631954 248 35172ft 369kts
12-Nov-17 09:11 32.059333 131.526707 248 35171ft 370kts
12-Nov-17 09:12 32.008916 131.422647 248 35172ft 370kts
12-Nov-17 09:13 31.957634 131.316962 248 35171ft 371kts
12-Nov-17 09:14 31.906445 131.211747 248 35170ft 371kts
12-Nov-17 09:15 31.855141 131.106554 248 35169ft 371kts
12-Nov-17 09:16 31.803515 131.001209 247 35169ft 371kts
12-Nov-17 09:17 31.751958 130.896208 247 35169ft 371kts
12-Nov-17 09:18 31.700312 130.791285 247 35173ft 371kts
12-Nov-17 09:19 31.648479 130.686216 247 35171ft 370kts
12-Nov-17 09:20 31.596830 130.581865 247 35170ft 370kts
12-Nov-17 09:21 31.545057 130.477539 247 35176ft 370kts
12-Nov-17 09:22 31.493569 130.374101 247 35170ft 370kts
12-Nov-17 09:23 31.441778 130.269964 247 35168ft 370kts
12-Nov-17 09:24 31.389819 130.165947 247 35167ft 371kts
12-Nov-17 09:25 31.337396 130.061762 247 35168ft 370kts
12-Nov-17 09:26 31.284298 129.958398 243 35168ft 374kts
12-Nov-17 09:27 31.219671 129.861176 241 35167ft 380kts
12-Nov-17 09:28 31.154177 129.764142 241 35165ft 380kts
12-Nov-17 09:29 31.088789 129.666987 241 35165ft 381kts
12-Nov-17 09:30 31.023359 129.569141 241 35162ft 382kts
12-Nov-17 09:31 30.957901 129.471636 241 35162ft 383kts
12-Nov-17 09:32 30.893174 129.375775 240 35160ft 383kts
12-Nov-17 09:33 30.826862 129.278107 240 35159ft 384kts
12-Nov-17 09:34 30.760905 129.180541 241 35157ft 383kts
12-Nov-17 09:35 30.696209 129.082171 241 35155ft 383kts
12-Nov-17 09:36 30.631048 128.983486 241 35764ft 385kts
12-Nov-17 09:37 30.565985 128.885192 241 36888ft 384kts
12-Nov-17 09:38 30.501248 128.786649 241 37954ft 382kts
12-Nov-17 09:39 30.436257 128.688507 241 38147ft 384kts
12-Nov-17 09:40 30.371066 128.590416 241 38145ft 385kts
12-Nov-17 09:41 30.305540 128.492081 241 38142ft 385kts
12-Nov-17 09:42 30.240856 128.395254 240 38140ft 385kts
12-Nov-17 09:43 30.175218 128.297234 240 38127ft 386kts
12-Nov-17 09:44 30.109198 128.198882 240 38124ft 386kts
12-Nov-17 09:45 30.043485 128.100911 240 38121ft 386kts
12-Nov-17 09:46 29.977551 128.003147 240 38118ft 386kts
12-Nov-17 09:47 29.911197 127.905228 240 38116ft 386kts
12-Nov-17 09:48 29.844197 127.808344 238 38113ft 389kts
12-Nov-17 09:49 29.773449 127.713839 238 38106ft 390kts
12-Nov-17 09:50 29.702442 127.618714 238 38112ft 391kts
12-Nov-17 09:51 29.631379 127.523889 238 38112ft 392kts
12-Nov-17 09:52 29.561839 127.429041 240 38109ft 392kts
12-Nov-17 09:53 29.494116 127.330646 239 38107ft 392kts
12-Nov-17 09:54 29.426210 127.232725 239 38104ft 393kts
12-Nov-17 09:55 29.357896 127.134231 239 38102ft 394kts
12-Nov-17 09:56 29.289766 127.035880 239 38102ft 394kts
12-Nov-17 09:57 29.221418 126.937810 239 38099ft 394kts
12-Nov-17 09:58 29.152799 126.839346 239 38097ft 395kts
12-Nov-17 09:59 29.084067 126.741218 239 38096ft 396kts
12-Nov-17 10:00 29.015028 126.643109 238 38093ft 397kts
12-Nov-17 10:01 28.944924 126.545039 237 38092ft 399kts
12-Nov-17 10:02 28.874096 126.449937 237 38092ft 400kts
12-Nov-17 10:03 28.802326 126.352852 237 38092ft 401kts
12-Nov-17 10:04 28.729733 126.255446 237 38092ft 403kts
12-Nov-17 10:05 28.656894 126.158000 237 38091ft 405kts
12-Nov-17 10:06 28.585444 126.058948 238 38091ft 405kts
12-Nov-17 10:07 28.514436 125.958990 238 38095ft 405kts
12-Nov-17 10:08 28.443464 125.859471 238 38095ft 406kts
12-Nov-17 10:09 28.372687 125.759759 238 38095ft 406kts
12-Nov-17 10:10 28.301374 125.659756 238 38094ft 406kts
12-Nov-17 10:11 28.230276 125.560451 237 38093ft 405kts
12-Nov-17 10:12 28.160629 125.463429 237 38093ft 404kts
12-Nov-17 10:13 28.089436 125.364482 237 38093ft 404kts
12-Nov-17 10:14 28.018426 125.266018 237 38092ft 404kts
12-Nov-17 10:15 27.946704 125.166791 237 38092ft 410kts
12-Nov-17 10:16 27.874543 125.067194 236 38087ft 409kts
12-Nov-17 10:17 27.802434 124.967601 237 38088ft 410kts
12-Nov-17 10:18 27.729789 124.867832 236 38087ft 410kts
12-Nov-17 10:19 27.657260 124.768595 236 38087ft 410kts
12-Nov-17 10:20 27.584693 124.669418 236 38086ft 410kts
12-Nov-17 10:21 27.511827 124.570074 236 38086ft 410kts
12-Nov-17 10:22 27.440454 124.472974 236 38086ft 410kts
12-Nov-17 10:23 27.367943 124.374045 236 38084ft 410kts
12-Nov-17 10:24 27.295015 124.274821 236 38084ft 411kts
12-Nov-17 10:25 27.222132 124.175854 236 38082ft 412kts
12-Nov-17 10:26 27.148730 124.076852 236 38041ft 413kts
12-Nov-17 10:27 27.087178 123.993983 235 38032ft 414kts
12-Nov-17 10:28 27.000401 123.878959 235 38030ft 415kts
12-Nov-17 10:29 26.938186 123.796687 235 38029ft 416kts
12-Nov-17 10:30 26.863014 123.697362 235 38027ft 417kts
12-Nov-17 10:31 26.775642 123.581552 235 38025ft 418kts
12-Nov-17 10:32 26.713626 123.499830 235 38022ft 419kts
12-Nov-17 10:33 26.638182 123.400657 235 38020ft 419kts
12-Nov-17 10:34 26.562566 123.301484 234 38018ft 420kts
12-Nov-17 10:35 26.486712 123.201906 234 38016ft 420kts
12-Nov-17 10:36 26.410861 123.103028 234 38015ft 419kts
12-Nov-17 10:37 26.345043 123.017390 234 38013ft 420kts
12-Nov-17 10:38 26.296838 122.953914 235 38011ft 420kts
12-Nov-17 10:39 26.221611 122.854493 235 37997ft 420kts
12-Nov-17 10:40 26.146446 122.755140 235 37995ft 420kts
12-Nov-17 10:41 26.071075 122.655411 234 37995ft 420kts
12-Nov-17 10:42 25.996657 122.557701 234 37995ft 421kts
12-Nov-17 10:43 25.919823 122.458238 233 37996ft 426kts
12-Nov-17 10:44 25.841001 122.359745 233 37995ft 425kts
12-Nov-17 10:45 25.762944 122.261605 233 37995ft 424kts
12-Nov-17 10:46 25.684285 122.163478 233 37995ft 425kts
12-Nov-17 10:47 25.605936 122.065676 233 37995ft 424kts
12-Nov-17 10:48 25.528386 121.967085 233 37995ft 425kts
12-Nov-17 10:49 25.450388 121.868191 233 37995ft 425kts
12-Nov-17 10:50 25.372620 121.769419 233 37994ft 426kts
12-Nov-17 10:51 25.294628 121.670546 233 37994ft 428kts
12-Nov-17 10:52 25.216827 121.572499 233 37993ft 429kts
12-Nov-17 10:53 25.138659 121.472744 233 37997ft 430kts
12-Nov-17 10:54 25.061019 121.372238 233 38004ft 431kts
12-Nov-17 10:55 24.982848 121.271306 233 38016ft 432kts
12-Nov-17 10:56 24.904959 121.170439 233 37992ft 433kts
12-Nov-17 10:57 24.826802 121.069639 233 37991ft 434kts
12-Nov-17 10:58 24.748259 120.968441 233 37989ft 434kts
12-Nov-17 10:59 24.669705 120.867679 233 37984ft 434kts
12-Nov-17 11:00 24.590901 120.766951 233 37977ft 435kts
12-Nov-17 11:01 24.509044 120.668457 229 37971ft 437kts
12-Nov-17 11:02 24.425558 120.574150 229 37966ft 438kts
12-Nov-17 11:03 24.340645 120.477706 229 37965ft 438kts
12-Nov-17 11:04 24.256130 120.381356 229 37965ft 439kts
12-Nov-17 11:05 24.171419 120.284991 229 37968ft 440kts
12-Nov-17 11:06 24.086048 120.188495 229 37964ft 440kts
12-Nov-17 11:07 24.000806 120.092313 229 37965ft 441kts
12-Nov-17 11:08 23.915431 119.996290 229 37965ft 441kts
12-Nov-17 11:09 23.829765 119.900105 229 37964ft 441kts
12-Nov-17 11:10 23.744563 119.804060 229 37964ft 441kts
12-Nov-17 11:11 23.658941 119.708296 229 37963ft 442kts
12-Nov-17 11:12 23.579019 119.610345 238 37964ft 439kts
12-Nov-17 11:13 23.514215 119.498147 240 37965ft 437kts
12-Nov-17 11:14 23.449443 119.386217 240 37968ft 437kts
12-Nov-17 11:15 23.384226 119.273796 240 37967ft 438kts
12-Nov-17 11:16 23.319076 119.161756 240 37970ft 439kts
12-Nov-17 11:17 23.253627 119.049695 239 37973ft 439kts
12-Nov-17 11:18 23.187882 118.937398 239 37976ft 439kts
12-Nov-17 11:19 23.122201 118.825327 239 37980ft 440kts
12-Nov-17 11:20 23.056454 118.713361 239 37983ft 440kts
12-Nov-17 11:21 22.990228 118.601181 239 37985ft 441kts
12-Nov-17 11:22 22.924913 118.491022 239 37979ft 441kts
12-Nov-17 11:23 22.858052 118.378946 239 37978ft 442kts
12-Nov-17 11:24 22.791266 118.267181 239 37979ft 442kts
12-Nov-17 11:25 22.724624 118.154998 239 37975ft 443kts
12-Nov-17 11:26 22.657243 118.042696 239 37991ft 444kts
12-Nov-17 11:27 22.590031 117.930621 239 38004ft 445kts
12-Nov-17 11:28 22.523066 117.818155 239 38010ft 445kts
12-Nov-17 11:29 22.455996 117.705096 239 38010ft 446kts
12-Nov-17 11:30 22.388743 117.592617 239 38010ft 446kts
12-Nov-17 11:31 22.336509 117.473595 261 38015ft 443kts
12-Nov-17 11:32 22.329876 117.342431 268 38011ft 442kts
12-Nov-17 11:33 22.327692 117.209664 267 38011ft 443kts
12-Nov-17 11:34 22.325294 117.076886 268 38012ft 443kts
12-Nov-17 11:35 22.322803 116.943675 267 38012ft 442kts
12-Nov-17 11:36 22.320052 116.810916 267 38012ft 443kts
12-Nov-17 11:37 22.317172 116.677921 267 38012ft 444kts
12-Nov-17 11:38 22.314163 116.544259 267 38007ft 445kts
12-Nov-17 11:39 22.311048 116.410751 267 38007ft 446kts
12-Nov-17 11:40 22.307804 116.276443 267 38005ft 447kts
12-Nov-17 11:41 22.304592 116.142421 267 38003ft 447kts
12-Nov-17 11:42 22.301175 116.009704 267 38001ft 448kts
12-Nov-17 11:43 22.297477 115.875070 267 37999ft 447kts
12-Nov-17 11:44 22.293976 115.744332 267 37658ft 417kts
12-Nov-17 11:45 22.290877 115.622925 267 35986ft 396kts
12-Nov-17 11:46 22.287620 115.506453 267 34182ft 379kts
12-Nov-17 11:47 22.284397 115.395156 267 32400ft 363kts
12-Nov-17 11:48 22.281216 115.288446 266 30732ft 347kts
12-Nov-17 11:49 22.277885 115.174061 267 28998ft 409kts
12-Nov-17 11:50 22.273964 115.053313 267 26955ft 395kts
12-Nov-17 11:51 22.270126 114.936800 267 24961ft 382kts
12-Nov-17 11:52 22.266469 114.825049 267 23034ft 370kts
12-Nov-17 11:53 22.262945 114.715877 267 21118ft 359kts
12-Nov-17 11:54 22.259283 114.609292 267 19226ft 350kts
12-Nov-17 11:55 22.255682 114.505561 267 17368ft 342kts
12-Nov-17 11:56 22.252032 114.403812 266 15537ft 336kts
12-Nov-17 11:57 22.247734 114.303653 260 13722ft 330kts
12-Nov-17 11:58 22.217377 114.210395 245 11957ft 335kts
12-Nov-17 11:59 22.182174 114.118667 246 10410ft 322kts
12-Nov-17 12:00 22.150331 114.034282 246 9659ft 288kts
12-Nov-17 12:01 22.120090 113.954436 246 8133ft 283kts
12-Nov-17 12:02 22.091938 113.880340 245 6728ft 262kts
12-Nov-17 12:03 22.093154 113.802201 291 5277ft 274kts
12-Nov-17 12:04 22.146948 113.754381 338 4434ft 238kts
12-Nov-17 12:05 22.206514 113.728822 1 3920ft 213kts
12-Nov-17 12:06 22.250810 113.758108 59 2820ft 180kts
12-Nov-17 12:07 22.265908 113.803650 72 1897ft 142kts
12-Nov-17 12:08 22.278976 113.844462 71 1088ft 144kts
12-Nov-17 12:09 22.291973 113.884801 71 324ft 142kts
12-Nov-17 12:10 22.301618 113.914908 75 41ft 18kts
12-Nov-17 12:11 22.300812 113.917598 68 41ft 12kts
12-Nov-17 12:12 22.300910 113.920527 160 41ft 9kts
12-Nov-17 12:13 22.300071 113.922288 67 41ft 8kts
12-Nov-17 12:14 22.300958 113.925057 69 41ft 11kts
12-Nov-17 12:15 22.301948 113.927993 71 41ft 9kts
12-Nov-17 12:16 22.301136 113.929106 161 41ft 0kts
12-Nov-17 12:17 22.301136 113.929106 161 41ft 0kts
12-Nov-17 12:18 22.301136 113.929106 161 41ft 0kts
12-Nov-17 12:19 22.301136 113.929106 161 41ft 0kts
12-Nov-17 12:20 22.301136 113.929106 161 41ft 0kts
12-Nov-17 12:21 22.301136 113.929106 161 41ft 0kts
12-Nov-17 12:22 22.301136 113.929106 161 41ft 0kts

Navigation Log

Ident Type
Flight plan parsing failed, navigation log unavailable